createdAt,value
2023-04-09T00:01:38.241Z,40.53
2023-04-09T00:04:43.360Z,42.50
2023-04-09T00:07:46.944Z,40.50
2023-04-09T00:10:50.507Z,37.53
2023-04-09T00:13:54.046Z,38.30
2023-04-09T00:16:57.610Z,35.10
2023-04-09T00:20:02.491Z,35.40
2023-04-09T00:23:06.166Z,36.50
2023-04-09T00:26:09.981Z,37.30
2023-04-09T00:29:13.523Z,36.93
2023-04-09T00:32:17.284Z,36.63
2023-04-09T00:35:22.539Z,35.80
2023-04-09T00:38:26.026Z,34.83
2023-04-09T00:41:29.640Z,35.43
2023-04-09T00:44:33.242Z,35.13
2023-04-09T00:47:37.487Z,35.30
2023-04-09T00:50:43.165Z,35.90
2023-04-09T00:53:47.693Z,35.70
2023-04-09T00:56:51.590Z,36.17
2023-04-09T00:59:55.287Z,36.03
2023-04-09T01:03:01.040Z,35.03
2023-04-09T01:06:16.564Z,36.37
2023-04-09T01:09:28.901Z,36.30
2023-04-09T01:12:40.084Z,36.83
2023-04-09T01:15:53.579Z,35.50
2023-04-09T01:19:08.141Z,35.87
2023-04-09T01:22:57.756Z,33.97
2023-04-09T01:26:08.692Z,34.93
2023-04-09T01:29:18.713Z,34.73
2023-04-09T01:32:24.768Z,39.00
2023-04-09T01:35:30.210Z,36.77
2023-04-09T01:38:36.966Z,37.17
2023-04-09T01:41:42.575Z,34.77
2023-04-09T01:44:48.389Z,36.53
2023-04-09T01:47:52.920Z,35.40
2023-04-09T01:50:57.248Z,34.90
2023-04-09T01:54:01.058Z,34.30
2023-04-09T01:57:04.659Z,33.87
2023-04-09T02:00:13.040Z,33.20
2023-04-09T02:03:23.233Z,33.83
2023-04-09T02:06:38.144Z,33.97
2023-04-09T02:09:44.382Z,33.60
2023-04-09T02:12:52.593Z,35.33
2023-04-09T02:16:00.862Z,34.47
2023-04-09T02:19:04.533Z,34.17
2023-04-09T02:22:08.128Z,36.00
2023-04-09T02:25:11.681Z,32.07
2023-04-09T02:28:15.480Z,33.50
2023-04-09T02:31:20.445Z,32.10
2023-04-09T02:34:24.543Z,32.17
2023-04-09T02:37:28.056Z,33.33
2023-04-09T02:40:31.741Z,34.63
2023-04-09T02:43:35.485Z,32.57
2023-04-09T02:46:41.083Z,31.50
2023-04-09T02:49:44.650Z,31.30
2023-04-09T02:52:48.696Z,30.80
2023-04-09T02:55:52.321Z,30.40
2023-04-09T02:58:55.878Z,28.00
2023-04-09T03:02:00.913Z,26.47
2023-04-09T03:05:04.929Z,26.23
2023-04-09T03:08:08.517Z,25.13
2023-04-09T03:11:12.027Z,23.63
2023-04-09T03:14:15.571Z,22.93
2023-04-09T03:17:20.496Z,22.00
2023-04-09T03:20:24.068Z,21.73
2023-04-09T03:23:27.629Z,20.87
2023-04-09T03:26:36.238Z,18.97
2023-04-09T03:29:39.721Z,20.30
2023-04-09T03:32:44.665Z,20.37
2023-04-09T03:35:48.260Z,19.47
2023-04-09T03:38:52.219Z,20.50
2023-04-09T03:41:57.903Z,26.37
2023-04-09T03:45:01.490Z,27.73
2023-04-09T03:48:06.662Z,27.67
2023-04-09T03:51:13.927Z,24.87
2023-04-09T03:54:17.445Z,24.17
2023-04-09T03:57:21.109Z,20.43
2023-04-09T04:00:24.635Z,19.70
2023-04-09T04:03:29.963Z,18.20
2023-04-09T04:06:36.046Z,18.83
2023-04-09T04:09:39.524Z,17.10
2023-04-09T04:12:42.986Z,18.50
2023-04-09T04:15:46.525Z,18.60
2023-04-09T04:18:51.765Z,17.50
2023-04-09T04:21:55.705Z,17.30
2023-04-09T04:24:59.412Z,16.83
2023-04-09T04:28:02.901Z,17.57
2023-04-09T04:31:10.944Z,17.60
2023-04-09T04:34:15.907Z,19.17
2023-04-09T04:37:19.555Z,20.67
2023-04-09T04:40:23.386Z,21.37
2023-04-09T04:43:26.826Z,21.57
2023-04-09T04:46:30.426Z,21.50
2023-04-09T04:49:35.271Z,21.20
2023-04-09T04:52:40.493Z,21.57
2023-04-09T04:55:44.135Z,23.30
2023-04-09T04:58:50.917Z,24.90
2023-04-09T05:01:54.650Z,25.43
2023-04-09T05:04:59.614Z,26.93
2023-04-09T05:08:03.122Z,26.30
2023-04-09T05:11:06.841Z,27.20
2023-04-09T05:14:10.450Z,26.40
2023-04-09T05:17:14.036Z,25.80
2023-04-09T05:20:18.921Z,26.67
2023-04-09T05:23:22.722Z,29.07
2023-04-09T05:26:27.157Z,27.10
2023-04-09T05:29:30.793Z,27.40
2023-04-09T05:32:34.392Z,28.57
2023-04-09T05:35:41.777Z,27.33
2023-04-09T05:38:45.973Z,26.37
2023-04-09T05:41:50.124Z,27.33
2023-04-09T05:44:53.746Z,28.27
2023-04-09T05:47:57.592Z,30.00
2023-04-09T05:51:02.558Z,29.27
2023-04-09T05:54:06.154Z,30.50
2023-04-09T05:57:09.880Z,29.67
2023-04-09T06:00:15.208Z,30.13
2023-04-09T06:03:18.887Z,30.17
2023-04-09T06:06:23.973Z,31.07
2023-04-09T06:09:27.966Z,30.90
2023-04-09T06:12:31.628Z,28.23
2023-04-09T06:15:35.184Z,27.93
2023-04-09T06:18:39.105Z,29.07
2023-04-09T06:21:44.061Z,28.63
2023-04-09T06:24:47.792Z,26.67
2023-04-09T06:27:51.621Z,26.87
2023-04-09T06:30:55.560Z,26.57
2023-04-09T06:33:59.037Z,26.10
2023-04-09T06:37:04.095Z,22.37
2023-04-09T06:40:09.403Z,21.80
2023-04-09T06:43:13.165Z,21.37
2023-04-09T06:46:20.152Z,19.73
2023-04-09T06:49:24.148Z,19.63
2023-04-09T06:52:29.114Z,18.87
2023-04-09T06:55:32.667Z,19.40
2023-04-09T06:58:36.745Z,18.47
2023-04-09T07:01:40.965Z,17.10
2023-04-09T07:04:44.673Z,15.27
2023-04-09T07:07:49.765Z,15.43
2023-04-09T07:10:53.834Z,17.03
2023-04-09T07:13:57.502Z,14.83
2023-04-09T07:17:01.008Z,14.37
2023-04-09T07:20:05.094Z,15.13
2023-04-09T07:23:16.665Z,14.67
2023-04-09T07:26:20.490Z,14.83
2023-04-09T07:29:24.329Z,15.30
2023-04-09T07:32:29.218Z,14.93
2023-04-09T07:35:34.781Z,13.93
2023-04-09T07:38:39.828Z,13.03
2023-04-09T07:41:43.764Z,15.10
2023-04-09T07:44:48.598Z,14.50
2023-04-09T07:47:52.608Z,14.33
2023-04-09T07:50:56.350Z,13.73
2023-04-09T07:54:01.326Z,13.67
2023-04-09T07:57:05.097Z,13.67
2023-04-09T08:00:10.479Z,14.80
2023-04-09T08:03:14.389Z,15.33
2023-04-09T08:06:18.349Z,14.63
2023-04-09T08:09:23.422Z,16.00
2023-04-09T08:12:27.180Z,15.80
2023-04-09T08:15:30.787Z,15.57
2023-04-09T08:18:34.258Z,16.70
2023-04-09T08:21:40.472Z,16.47
2023-04-09T08:24:45.596Z,16.43
2023-04-09T08:27:49.185Z,15.80
2023-04-09T08:30:52.733Z,15.70
2023-04-09T08:33:56.514Z,15.43
2023-04-09T08:37:00.451Z,14.37
2023-04-09T08:40:06.213Z,15.13
2023-04-09T08:43:15.770Z,13.60
2023-04-09T08:46:20.585Z,15.23
2023-04-09T08:49:24.385Z,15.37
2023-04-09T08:52:34.867Z,14.30
2023-04-09T08:55:39.772Z,13.77
2023-04-09T08:58:45.995Z,13.27
2023-04-09T09:01:54.326Z,13.33
2023-04-09T09:05:00.979Z,14.43
2023-04-09T09:08:04.643Z,15.30
2023-04-09T09:11:09.585Z,14.13
2023-04-09T09:14:15.610Z,14.03
2023-04-09T09:17:20.432Z,13.77
2023-04-09T09:20:25.661Z,13.60
2023-04-09T09:23:37.543Z,14.13
2023-04-09T09:26:43.763Z,14.17
2023-04-09T09:29:47.377Z,14.20
2023-04-09T09:32:54.966Z,14.70
2023-04-09T09:35:58.716Z,13.57
2023-04-09T09:39:09.903Z,13.70
2023-04-09T09:42:14.780Z,13.90
2023-04-09T09:45:38.421Z,14.03
2023-04-09T09:48:43.482Z,12.43
2023-04-09T09:51:47.081Z,14.37
2023-04-09T09:54:54.205Z,13.23
2023-04-09T09:58:03.668Z,13.53
2023-04-09T10:01:12.011Z,13.23
2023-04-09T10:04:17.602Z,14.47
2023-04-09T10:07:24.094Z,13.70
2023-04-09T10:10:28.942Z,15.67
2023-04-09T10:13:38.896Z,15.30
2023-04-09T10:16:43.636Z,12.03
2023-04-09T10:20:07.533Z,12.87
2023-04-09T10:23:22.455Z,12.87
2023-04-09T10:26:30.897Z,12.60
2023-04-09T10:29:35.997Z,13.27
2023-04-09T10:32:40.036Z,11.37
2023-04-09T10:35:44.323Z,12.07
2023-04-09T10:38:48.799Z,12.10
2023-04-09T10:41:54.723Z,12.43
2023-04-09T10:48:26.124Z,12.73
2023-04-09T10:51:29.961Z,14.03
2023-04-09T10:54:46.298Z,12.60
2023-04-09T10:57:50.091Z,13.70
2023-04-09T11:00:57.043Z,17.57
2023-04-09T11:04:17.667Z,12.93
2023-04-09T11:07:24.869Z,15.83
2023-04-09T11:10:28.500Z,11.87
2023-04-09T11:13:34.326Z,12.23
2023-04-09T11:16:39.545Z,12.13
2023-04-09T11:19:43.337Z,11.77
2023-04-09T11:22:47.112Z,13.37
2023-04-09T11:25:52.055Z,12.30
2023-04-09T11:28:59.186Z,11.17
2023-04-09T11:32:05.315Z,11.63
2023-04-09T11:35:14.347Z,13.20
2023-04-09T11:38:18.020Z,12.73
2023-04-09T11:41:34.340Z,11.50
2023-04-09T11:44:37.902Z,12.70
2023-04-09T11:47:44.992Z,13.00
2023-04-09T11:50:49.250Z,11.37
2023-04-09T11:53:52.858Z,11.93
2023-04-09T11:56:57.469Z,10.90
2023-04-09T12:00:03.104Z,11.50
2023-04-09T12:03:11.970Z,11.73
2023-04-09T12:06:15.812Z,10.27
2023-04-09T12:09:19.384Z,10.40
2023-04-09T12:12:25.798Z,9.73
2023-04-09T12:15:34.550Z,11.03
2023-04-09T12:18:40.082Z,10.33
2023-04-09T12:21:48.165Z,9.70
2023-04-09T12:24:51.814Z,13.33
2023-04-09T12:27:56.955Z,17.00
2023-04-09T12:31:00.751Z,11.73
2023-04-09T12:34:07.196Z,34.90
2023-04-09T12:37:10.754Z,8.47
2023-04-09T12:40:14.904Z,8.50
2023-04-09T12:43:18.461Z,9.63
2023-04-09T12:46:22.319Z,9.07
2023-04-09T12:49:27.317Z,9.00
2023-04-09T12:52:30.886Z,8.30
2023-04-09T12:55:34.695Z,8.70
2023-04-09T12:58:38.638Z,8.67
2023-04-09T13:01:43.588Z,8.90
2023-04-09T13:04:48.733Z,8.60
2023-04-09T13:07:52.678Z,9.40
2023-04-09T13:10:56.482Z,8.20
2023-04-09T13:14:00.204Z,8.90
2023-04-09T13:17:03.947Z,8.90
2023-04-09T13:20:10.716Z,9.50
2023-04-09T13:23:14.442Z,8.37
2023-04-09T13:26:18.077Z,7.97
2023-04-09T13:29:22.078Z,9.13
2023-04-09T13:32:27.359Z,8.20
2023-04-09T13:35:32.528Z,8.60
2023-04-09T13:38:36.414Z,8.00
2023-04-09T13:41:40.547Z,9.00
2023-04-09T13:44:46.251Z,8.90
2023-04-09T13:47:50.515Z,8.60
2023-04-09T13:50:55.525Z,9.03
2023-04-09T13:53:59.169Z,8.60
2023-04-09T13:57:03.579Z,9.17
2023-04-09T14:00:09.424Z,9.23
2023-04-09T14:03:14.364Z,8.37
2023-04-09T14:06:19.694Z,8.60
2023-04-09T14:09:23.245Z,8.60
2023-04-09T14:12:26.756Z,8.13
2023-04-09T14:15:30.636Z,9.50
2023-04-09T14:18:34.270Z,7.77
2023-04-09T14:21:40.579Z,8.77
2023-04-09T14:24:44.332Z,9.03
2023-04-09T14:27:47.827Z,8.87
2023-04-09T14:30:51.559Z,8.60
2023-04-09T14:33:55.056Z,9.13
2023-04-09T14:37:00.061Z,8.30
2023-04-09T14:40:03.629Z,8.53
2023-04-09T14:43:07.185Z,9.13
2023-04-09T14:46:12.061Z,8.57
2023-04-09T14:49:15.736Z,9.43
2023-04-09T14:52:20.777Z,8.53
2023-04-09T14:55:25.831Z,8.37
2023-04-09T14:58:29.458Z,9.77
2023-04-09T15:01:33.341Z,8.83
2023-04-09T15:04:37.121Z,8.57
2023-04-09T15:07:42.131Z,8.40
2023-04-09T15:10:45.705Z,8.63
2023-04-09T15:13:49.699Z,9.37
2023-04-09T15:16:55.896Z,9.10
2023-04-09T15:20:00.611Z,8.97
2023-04-09T15:23:05.571Z,8.30
2023-04-09T15:26:09.203Z,9.27
2023-04-09T15:29:12.805Z,9.47
2023-04-09T15:32:16.460Z,9.43
2023-04-09T15:35:25.092Z,9.30
2023-04-09T15:38:30.137Z,8.97
2023-04-09T15:41:33.893Z,9.57
2023-04-09T15:44:39.049Z,9.60
2023-04-09T15:47:42.751Z,10.20
2023-04-09T15:50:46.755Z,10.00
2023-04-09T15:53:51.721Z,9.70
2023-04-09T15:56:55.376Z,9.17
2023-04-09T15:59:58.953Z,9.87
2023-04-09T16:03:02.579Z,9.63
2023-04-09T16:06:07.488Z,9.33
2023-04-09T16:09:12.822Z,8.70
2023-04-09T16:12:16.347Z,8.93
2023-04-09T16:15:20.256Z,9.63
2023-04-09T16:18:24.401Z,9.37
2023-04-09T16:21:29.091Z,10.73
2023-04-09T16:24:34.036Z,11.93
2023-04-09T16:27:37.623Z,14.23
2023-04-09T16:30:41.449Z,14.30
2023-04-09T16:33:44.983Z,15.47
2023-04-09T16:36:50.664Z,17.50
2023-04-09T16:39:56.627Z,16.10
2023-04-09T16:43:00.492Z,17.00
2023-04-09T16:46:06.523Z,17.40
2023-04-09T16:49:10.144Z,17.83
2023-04-09T16:52:13.730Z,15.70
2023-04-09T16:55:18.803Z,15.73
2023-04-09T16:58:22.449Z,15.30
2023-04-09T17:01:26.532Z,15.43
2023-04-09T17:04:31.752Z,16.97
2023-04-09T17:07:35.591Z,16.83
2023-04-09T17:10:40.634Z,18.40
2023-04-09T17:13:44.989Z,16.43
2023-04-09T17:16:48.714Z,16.37
2023-04-09T17:19:53.474Z,16.83
2023-04-09T17:22:57.575Z,15.63
2023-04-09T17:26:03.446Z,16.03
2023-04-09T17:29:07.197Z,15.90
2023-04-09T17:32:11.012Z,20.63
2023-04-09T17:35:14.627Z,19.60
2023-04-09T17:38:21.576Z,17.43
2023-04-09T17:41:27.802Z,19.17
2023-04-09T17:44:35.302Z,17.60
2023-04-09T17:47:39.834Z,19.37
2023-04-09T17:50:43.531Z,22.07
2023-04-09T17:53:47.569Z,18.70
2023-04-09T17:56:53.250Z,19.23
2023-04-09T17:59:56.767Z,18.83
2023-04-09T18:03:00.854Z,19.93
2023-04-09T18:06:04.863Z,20.53
2023-04-09T18:09:08.612Z,22.90
2023-04-09T18:12:13.644Z,24.97
2023-04-09T18:15:18.772Z,21.97
2023-04-09T18:18:22.418Z,21.77
2023-04-09T18:21:27.128Z,22.07
2023-04-09T18:24:30.882Z,25.03
2023-04-09T18:27:36.009Z,27.50
2023-04-09T18:30:39.846Z,26.50
2023-04-09T18:33:43.598Z,25.30
2023-04-09T18:36:47.387Z,24.87
2023-04-09T18:39:50.952Z,27.40
2023-04-09T18:42:56.856Z,25.27
2023-04-09T18:46:00.438Z,25.70
2023-04-09T18:49:04.036Z,24.47
2023-04-09T18:52:09.200Z,25.27
2023-04-09T18:55:13.764Z,25.23
2023-04-09T18:58:18.598Z,27.50
2023-04-09T19:01:23.131Z,34.33
2023-04-09T19:04:28.298Z,40.30
2023-04-09T19:07:32.070Z,40.50
2023-04-09T19:10:36.120Z,37.30
2023-04-09T19:13:41.669Z,30.03
2023-04-09T19:16:45.379Z,28.97
2023-04-09T19:19:49.087Z,27.80
2023-04-09T19:22:54.590Z,27.43
2023-04-09T19:25:58.136Z,27.07
2023-04-09T19:29:03.759Z,27.20
2023-04-09T19:32:09.296Z,27.40
2023-04-09T19:35:12.985Z,29.20
2023-04-09T19:38:17.114Z,31.27
2023-04-09T19:41:20.753Z,29.20
2023-04-09T19:44:25.827Z,28.23
2023-04-09T19:47:29.668Z,28.27
2023-04-09T19:50:37.858Z,28.73
2023-04-09T19:53:43.518Z,32.40
2023-04-09T19:56:47.761Z,31.73
2023-04-09T19:59:52.643Z,31.40
2023-04-09T20:02:57.157Z,31.73
2023-04-09T20:06:00.997Z,30.60
2023-04-09T20:09:04.669Z,31.50
2023-04-09T20:12:09.592Z,31.03
2023-04-09T20:15:15.014Z,31.90
2023-04-09T20:18:18.510Z,29.97
2023-04-09T20:21:22.086Z,32.23
2023-04-09T20:24:27.003Z,31.10
2023-04-09T20:27:31.417Z,29.93
2023-04-09T20:30:36.906Z,29.40
2023-04-09T20:33:40.792Z,30.07
2023-04-09T20:36:44.407Z,30.03
2023-04-09T20:39:47.926Z,27.70
2023-04-09T20:42:52.561Z,26.13
2023-04-09T20:45:57.901Z,25.87
2023-04-09T20:49:01.645Z,25.83
2023-04-09T20:52:05.982Z,25.47
2023-04-09T20:55:10.968Z,24.30
2023-04-09T20:58:14.918Z,25.67
2023-04-09T21:01:20.147Z,26.13
2023-04-09T21:04:24.747Z,25.87
2023-04-09T21:07:28.410Z,24.90
2023-04-09T21:10:32.012Z,26.37
2023-04-09T21:13:50.442Z,25.60
2023-04-09T21:16:59.337Z,26.37
2023-04-09T21:20:02.927Z,26.07
2023-04-09T21:23:07.445Z,27.40
2023-04-09T21:26:11.832Z,26.50
2023-04-09T21:29:15.763Z,26.70
2023-04-09T21:32:20.859Z,25.80
2023-04-09T21:35:24.470Z,28.57
2023-04-09T21:38:27.967Z,29.67
2023-04-09T21:41:31.521Z,29.53
2023-04-09T21:44:35.268Z,29.37
2023-04-09T21:47:40.694Z,30.10
2023-04-09T21:50:44.250Z,29.77
2023-04-09T21:53:48.224Z,28.90
2023-04-09T21:56:51.726Z,29.03
2023-04-09T21:59:55.352Z,28.33
2023-04-09T22:03:01.825Z,30.00
2023-04-09T22:06:06.241Z,28.57
2023-04-09T22:09:09.689Z,28.03
2023-04-09T22:12:13.206Z,28.60
2023-04-09T22:15:17.813Z,30.47
2023-04-09T22:18:22.662Z,29.33
2023-04-09T22:21:26.561Z,29.80
2023-04-09T22:24:33.914Z,29.93
2023-04-09T22:27:37.875Z,29.03
2023-04-09T22:30:41.328Z,31.63
2023-04-09T22:33:46.218Z,30.10
2023-04-09T22:36:49.980Z,31.90
2023-04-09T22:39:53.461Z,33.20
2023-04-09T22:42:57.201Z,33.83
2023-04-09T22:46:09.494Z,36.27
2023-04-09T22:49:14.513Z,37.83
2023-04-09T22:52:18.098Z,36.33
2023-04-09T22:55:21.857Z,35.00
2023-04-09T22:58:25.365Z,35.97
2023-04-09T23:01:29.488Z,35.87
2023-04-09T23:04:35.019Z,34.70
2023-04-09T23:07:38.641Z,32.77
2023-04-09T23:10:42.182Z,32.10
2023-04-09T23:13:45.792Z,31.60
2023-04-09T23:16:49.386Z,30.83
2023-04-09T23:19:54.424Z,31.43
2023-04-09T23:22:57.993Z,31.37
2023-04-09T23:26:01.938Z,29.90
2023-04-09T23:29:05.441Z,29.47
2023-04-09T23:32:08.931Z,28.57
2023-04-09T23:35:13.950Z,26.03
2023-04-09T23:38:17.637Z,23.97
2023-04-09T23:41:21.333Z,23.60
2023-04-09T23:44:24.960Z,21.43
2023-04-09T23:47:28.497Z,21.20
2023-04-09T23:50:33.524Z,20.77
2023-04-09T23:53:37.042Z,21.03
2023-04-09T23:56:40.545Z,19.10
2023-04-09T23:59:44.043Z,20.37
